sensor_id;sensor_type;location;lat;lon;timestamp;P1;durP1;ratioP1;P2;durP2;ratioP2
55539;SDS011;41384;51.418;7.286;2023-05-07T00:00:52;12.25;;;6.18;;
55539;SDS011;41384;51.418;7.286;2023-05-07T00:03:17;7.60;;;4.78;;
55539;SDS011;41384;51.418;7.286;2023-05-07T00:05:43;8.73;;;5.97;;
55539;SDS011;41384;51.418;7.286;2023-05-07T00:08:09;6.68;;;5.20;;
55539;SDS011;41384;51.418;7.286;2023-05-07T00:10:34;7.63;;;5.57;;
55539;SDS011;41384;51.418;7.286;2023-05-07T00:13:00;9.20;;;5.47;;
55539;SDS011;41384;51.418;7.286;2023-05-07T00:15:25;8.80;;;5.55;;
55539;SDS011;41384;51.418;7.286;2023-05-07T00:17:50;9.32;;;5.25;;
55539;SDS011;41384;51.418;7.286;2023-05-07T00:20:16;6.15;;;5.13;;
55539;SDS011;41384;51.418;7.286;2023-05-07T00:22:41;8.45;;;4.82;;
55539;SDS011;41384;51.418;7.286;2023-05-07T00:25:06;8.93;;;5.32;;
55539;SDS011;41384;51.418;7.286;2023-05-07T00:27:32;6.63;;;5.47;;
55539;SDS011;41384;51.418;7.286;2023-05-07T00:29:57;8.38;;;6.10;;
55539;SDS011;41384;51.418;7.286;2023-05-07T00:32:22;8.32;;;6.20;;
55539;SDS011;41384;51.418;7.286;2023-05-07T00:34:48;9.43;;;5.75;;
55539;SDS011;41384;51.418;7.286;2023-05-07T00:37:13;8.85;;;6.18;;
55539;SDS011;41384;51.418;7.286;2023-05-07T00:39:38;8.57;;;5.90;;
55539;SDS011;41384;51.418;7.286;2023-05-07T00:42:03;7.75;;;6.00;;
55539;SDS011;41384;51.418;7.286;2023-05-07T00:44:29;7.18;;;5.68;;
55539;SDS011;41384;51.418;7.286;2023-05-07T00:46:55;12.25;;;6.25;;
55539;SDS011;41384;51.418;7.286;2023-05-07T00:49:22;8.35;;;6.32;;
55539;SDS011;41384;51.418;7.286;2023-05-07T00:51:49;10.30;;;6.40;;
55539;SDS011;41384;51.418;7.286;2023-05-07T00:54:14;10.00;;;6.30;;
55539;SDS011;41384;51.418;7.286;2023-05-07T00:56:40;10.93;;;6.05;;
55539;SDS011;41384;51.418;7.286;2023-05-07T00:59:06;7.30;;;5.65;;
55539;SDS011;41384;51.418;7.286;2023-05-07T01:01:31;7.88;;;6.47;;
55539;SDS011;41384;51.418;7.286;2023-05-07T01:03:56;7.72;;;5.75;;
55539;SDS011;41384;51.418;7.286;2023-05-07T01:06:22;10.52;;;5.95;;
55539;SDS011;41384;51.418;7.286;2023-05-07T01:08:49;8.73;;;6.20;;
55539;SDS011;41384;51.418;7.286;2023-05-07T01:11:17;9.77;;;6.28;;
55539;SDS011;41384;51.418;7.286;2023-05-07T01:13:45;9.38;;;6.68;;
55539;SDS011;41384;51.418;7.286;2023-05-07T01:16:11;10.32;;;7.15;;
55539;SDS011;41384;51.418;7.286;2023-05-07T01:18:36;10.75;;;7.40;;
55539;SDS011;41384;51.418;7.286;2023-05-07T01:21:02;8.65;;;7.03;;
55539;SDS011;41384;51.418;7.286;2023-05-07T01:23:29;10.68;;;6.88;;
55539;SDS011;41384;51.418;7.286;2023-05-07T01:25:55;9.18;;;6.55;;
55539;SDS011;41384;51.418;7.286;2023-05-07T01:28:20;8.38;;;6.22;;
55539;SDS011;41384;51.418;7.286;2023-05-07T01:30:47;10.25;;;6.85;;
55539;SDS011;41384;51.418;7.286;2023-05-07T01:33:15;8.82;;;6.65;;
55539;SDS011;41384;51.418;7.286;2023-05-07T01:35:45;7.57;;;5.82;;
55539;SDS011;41384;51.418;7.286;2023-05-07T01:38:13;8.85;;;6.32;;
55539;SDS011;41384;51.418;7.286;2023-05-07T01:40:39;7.15;;;6.10;;
55539;SDS011;41384;51.418;7.286;2023-05-07T01:43:05;8.32;;;5.88;;
55539;SDS011;41384;51.418;7.286;2023-05-07T01:45:31;12.40;;;6.15;;
55539;SDS011;41384;51.418;7.286;2023-05-07T01:47:58;9.25;;;6.30;;
55539;SDS011;41384;51.418;7.286;2023-05-07T01:50:23;9.55;;;6.47;;
55539;SDS011;41384;51.418;7.286;2023-05-07T01:52:50;7.70;;;6.00;;
55539;SDS011;41384;51.418;7.286;2023-05-07T01:55:16;9.90;;;6.03;;
55539;SDS011;41384;51.418;7.286;2023-05-07T01:57:41;7.78;;;6.00;;
55539;SDS011;41384;51.418;7.286;2023-05-07T02:00:07;8.80;;;5.95;;
55539;SDS011;41384;51.418;7.286;2023-05-07T02:02:33;10.23;;;6.10;;
55539;SDS011;41384;51.418;7.286;2023-05-07T02:04:59;9.68;;;6.40;;
55539;SDS011;41384;51.418;7.286;2023-05-07T02:07:25;6.28;;;5.32;;
55539;SDS011;41384;51.418;7.286;2023-05-07T02:09:51;7.93;;;5.97;;
55539;SDS011;41384;51.418;7.286;2023-05-07T02:12:16;8.98;;;5.80;;
55539;SDS011;41384;51.418;7.286;2023-05-07T02:14:41;7.15;;;5.45;;
55539;SDS011;41384;51.418;7.286;2023-05-07T02:17:07;7.90;;;5.78;;
55539;SDS011;41384;51.418;7.286;2023-05-07T02:19:32;8.73;;;6.38;;
55539;SDS011;41384;51.418;7.286;2023-05-07T02:21:57;7.75;;;5.47;;
55539;SDS011;41384;51.418;7.286;2023-05-07T02:24:23;7.97;;;5.93;;
55539;SDS011;41384;51.418;7.286;2023-05-07T02:26:48;8.63;;;5.85;;
55539;SDS011;41384;51.418;7.286;2023-05-07T02:29:13;8.18;;;6.03;;
55539;SDS011;41384;51.418;7.286;2023-05-07T02:31:39;9.10;;;5.93;;
55539;SDS011;41384;51.418;7.286;2023-05-07T02:34:04;8.93;;;5.53;;
55539;SDS011;41384;51.418;7.286;2023-05-07T02:36:29;6.35;;;5.22;;
55539;SDS011;41384;51.418;7.286;2023-05-07T02:38:55;7.13;;;6.03;;
55539;SDS011;41384;51.418;7.286;2023-05-07T02:41:20;7.15;;;6.05;;
55539;SDS011;41384;51.418;7.286;2023-05-07T02:43:46;7.93;;;5.57;;
55539;SDS011;41384;51.418;7.286;2023-05-07T02:46:11;9.85;;;5.90;;
55539;SDS011;41384;51.418;7.286;2023-05-07T02:48:36;8.95;;;6.20;;
55539;SDS011;41384;51.418;7.286;2023-05-07T02:51:02;8.07;;;5.97;;
55539;SDS011;41384;51.418;7.286;2023-05-07T02:53:27;7.22;;;5.47;;
55539;SDS011;41384;51.418;7.286;2023-05-07T02:55:55;11.10;;;5.30;;
55539;SDS011;41384;51.418;7.286;2023-05-07T02:58:22;9.40;;;5.75;;
55539;SDS011;41384;51.418;7.286;2023-05-07T03:00:47;7.15;;;5.38;;
55539;SDS011;41384;51.418;7.286;2023-05-07T03:03:12;6.13;;;5.13;;
55539;SDS011;41384;51.418;7.286;2023-05-07T03:05:38;8.13;;;5.05;;
55539;SDS011;41384;51.418;7.286;2023-05-07T03:08:03;6.30;;;5.28;;
55539;SDS011;41384;51.418;7.286;2023-05-07T03:10:29;7.05;;;5.20;;
55539;SDS011;41384;51.418;7.286;2023-05-07T03:12:55;6.43;;;5.03;;
55539;SDS011;41384;51.418;7.286;2023-05-07T03:15:20;8.98;;;5.55;;
55539;SDS011;41384;51.418;7.286;2023-05-07T03:17:46;9.18;;;5.88;;
55539;SDS011;41384;51.418;7.286;2023-05-07T03:20:12;11.70;;;6.50;;
55539;SDS011;41384;51.418;7.286;2023-05-07T03:22:37;9.82;;;6.05;;
55539;SDS011;41384;51.418;7.286;2023-05-07T03:25:03;8.73;;;5.25;;
55539;SDS011;41384;51.418;7.286;2023-05-07T03:27:29;7.80;;;5.15;;
55539;SDS011;41384;51.418;7.286;2023-05-07T03:29:54;7.05;;;4.82;;
55539;SDS011;41384;51.418;7.286;2023-05-07T03:32:19;6.40;;;4.68;;
55539;SDS011;41384;51.418;7.286;2023-05-07T03:34:45;7.40;;;5.30;;
55539;SDS011;41384;51.418;7.286;2023-05-07T03:37:10;8.05;;;5.15;;
55539;SDS011;41384;51.418;7.286;2023-05-07T03:39:35;7.30;;;5.60;;
55539;SDS011;41384;51.418;7.286;2023-05-07T03:42:00;9.60;;;5.30;;
55539;SDS011;41384;51.418;7.286;2023-05-07T03:44:26;7.35;;;5.10;;
55539;SDS011;41384;51.418;7.286;2023-05-07T03:46:51;9.02;;;5.10;;
55539;SDS011;41384;51.418;7.286;2023-05-07T03:49:16;6.82;;;5.35;;
55539;SDS011;41384;51.418;7.286;2023-05-07T03:51:41;9.90;;;5.60;;
55539;SDS011;41384;51.418;7.286;2023-05-07T03:54:07;10.43;;;5.70;;
55539;SDS011;41384;51.418;7.286;2023-05-07T03:56:33;9.63;;;5.88;;
55539;SDS011;41384;51.418;7.286;2023-05-07T03:58:58;8.13;;;6.55;;
55539;SDS011;41384;51.418;7.286;2023-05-07T04:01:23;8.50;;;6.28;;
55539;SDS011;41384;51.418;7.286;2023-05-07T04:03:48;8.60;;;6.15;;
55539;SDS011;41384;51.418;7.286;2023-05-07T04:06:15;8.95;;;6.10;;
55539;SDS011;41384;51.418;7.286;2023-05-07T04:08:42;8.63;;;6.15;;
55539;SDS011;41384;51.418;7.286;2023-05-07T04:11:07;7.95;;;6.20;;
55539;SDS011;41384;51.418;7.286;2023-05-07T04:13:32;8.32;;;5.90;;
55539;SDS011;41384;51.418;7.286;2023-05-07T04:15:58;8.05;;;5.65;;
55539;SDS011;41384;51.418;7.286;2023-05-07T04:18:23;8.15;;;5.70;;
55539;SDS011;41384;51.418;7.286;2023-05-07T04:20:49;7.82;;;5.55;;
55539;SDS011;41384;51.418;7.286;2023-05-07T04:23:15;9.35;;;5.80;;
55539;SDS011;41384;51.418;7.286;2023-05-07T04:25:40;7.70;;;6.07;;
55539;SDS011;41384;51.418;7.286;2023-05-07T04:28:06;7.40;;;5.93;;
55539;SDS011;41384;51.418;7.286;2023-05-07T04:30:31;10.25;;;5.85;;
55539;SDS011;41384;51.418;7.286;2023-05-07T04:32:57;9.88;;;6.38;;
55539;SDS011;41384;51.418;7.286;2023-05-07T04:35:22;10.68;;;6.30;;
55539;SDS011;41384;51.418;7.286;2023-05-07T04:37:47;9.45;;;6.68;;
55539;SDS011;41384;51.418;7.286;2023-05-07T04:40:13;7.97;;;6.45;;
55539;SDS011;41384;51.418;7.286;2023-05-07T04:42:38;10.15;;;6.97;;
55539;SDS011;41384;51.418;7.286;2023-05-07T04:45:04;9.55;;;6.68;;
55539;SDS011;41384;51.418;7.286;2023-05-07T04:47:30;11.00;;;6.78;;
55539;SDS011;41384;51.418;7.286;2023-05-07T04:49:55;9.90;;;6.68;;
55539;SDS011;41384;51.418;7.286;2023-05-07T04:52:20;10.38;;;7.47;;
55539;SDS011;41384;51.418;7.286;2023-05-07T04:54:45;9.82;;;6.97;;
55539;SDS011;41384;51.418;7.286;2023-05-07T04:57:11;9.40;;;7.30;;
55539;SDS011;41384;51.418;7.286;2023-05-07T04:59:36;10.15;;;7.38;;
55539;SDS011;41384;51.418;7.286;2023-05-07T05:02:02;8.70;;;6.53;;
55539;SDS011;41384;51.418;7.286;2023-05-07T05:04:29;9.80;;;6.80;;
55539;SDS011;41384;51.418;7.286;2023-05-07T05:06:54;10.32;;;6.30;;
55539;SDS011;41384;51.418;7.286;2023-05-07T05:09:19;9.20;;;6.38;;
55539;SDS011;41384;51.418;7.286;2023-05-07T05:11:45;8.52;;;6.57;;
55539;SDS011;41384;51.418;7.286;2023-05-07T05:14:10;11.27;;;6.40;;
55539;SDS011;41384;51.418;7.286;2023-05-07T05:16:35;8.77;;;6.22;;
55539;SDS011;41384;51.418;7.286;2023-05-07T05:19:01;9.23;;;6.22;;
55539;SDS011;41384;51.418;7.286;2023-05-07T05:21:27;7.43;;;5.18;;
55539;SDS011;41384;51.418;7.286;2023-05-07T05:23:52;7.10;;;5.78;;
55539;SDS011;41384;51.418;7.286;2023-05-07T05:26:17;7.85;;;5.38;;
55539;SDS011;41384;51.418;7.286;2023-05-07T05:28:43;7.38;;;5.13;;
55539;SDS011;41384;51.418;7.286;2023-05-07T05:31:08;5.20;;;4.28;;
55539;SDS011;41384;51.418;7.286;2023-05-07T05:33:34;6.38;;;4.20;;
55539;SDS011;41384;51.418;7.286;2023-05-07T05:35:59;6.30;;;4.43;;
55539;SDS011;41384;51.418;7.286;2023-05-07T05:38:24;5.80;;;4.32;;
55539;SDS011;41384;51.418;7.286;2023-05-07T05:40:50;5.35;;;4.47;;
55539;SDS011;41384;51.418;7.286;2023-05-07T05:43:16;5.72;;;4.78;;
55539;SDS011;41384;51.418;7.286;2023-05-07T05:45:41;5.32;;;4.10;;
55539;SDS011;41384;51.418;7.286;2023-05-07T05:48:06;5.88;;;4.07;;
55539;SDS011;41384;51.418;7.286;2023-05-07T05:50:33;6.45;;;4.40;;
55539;SDS011;41384;51.418;7.286;2023-05-07T05:53:00;6.85;;;4.05;;
55539;SDS011;41384;51.418;7.286;2023-05-07T05:55:26;6.80;;;4.00;;
55539;SDS011;41384;51.418;7.286;2023-05-07T05:57:51;5.97;;;3.58;;
55539;SDS011;41384;51.418;7.286;2023-05-07T06:00:17;5.60;;;4.13;;
55539;SDS011;41384;51.418;7.286;2023-05-07T06:02:42;5.50;;;3.97;;
55539;SDS011;41384;51.418;7.286;2023-05-07T06:05:08;5.35;;;3.63;;
55539;SDS011;41384;51.418;7.286;2023-05-07T06:07:34;5.10;;;3.50;;
55539;SDS011;41384;51.418;7.286;2023-05-07T06:09:59;4.70;;;3.55;;
55539;SDS011;41384;51.418;7.286;2023-05-07T06:12:25;4.40;;;3.80;;
55539;SDS011;41384;51.418;7.286;2023-05-07T06:14:51;7.88;;;4.03;;
55539;SDS011;41384;51.418;7.286;2023-05-07T06:17:16;5.05;;;3.67;;
55539;SDS011;41384;51.418;7.286;2023-05-07T06:19:41;4.70;;;3.60;;
55539;SDS011;41384;51.418;7.286;2023-05-07T06:22:07;5.65;;;3.80;;
55539;SDS011;41384;51.418;7.286;2023-05-07T06:24:32;4.18;;;3.25;;
55539;SDS011;41384;51.418;7.286;2023-05-07T06:26:57;5.25;;;3.50;;
55539;SDS011;41384;51.418;7.286;2023-05-07T06:29:23;6.35;;;3.70;;
55539;SDS011;41384;51.418;7.286;2023-05-07T06:31:50;5.45;;;3.90;;
55539;SDS011;41384;51.418;7.286;2023-05-07T06:34:19;4.40;;;3.45;;
55539;SDS011;41384;51.418;7.286;2023-05-07T06:36:44;4.20;;;3.20;;
55539;SDS011;41384;51.418;7.286;2023-05-07T06:39:10;6.25;;;3.70;;
55539;SDS011;41384;51.418;7.286;2023-05-07T06:41:35;5.05;;;3.60;;
55539;SDS011;41384;51.418;7.286;2023-05-07T06:44:01;6.20;;;3.42;;
55539;SDS011;41384;51.418;7.286;2023-05-07T06:46:27;4.28;;;3.35;;
55539;SDS011;41384;51.418;7.286;2023-05-07T06:48:53;4.80;;;2.97;;
55539;SDS011;41384;51.418;7.286;2023-05-07T06:51:18;5.53;;;3.20;;
55539;SDS011;41384;51.418;7.286;2023-05-07T06:53:44;4.43;;;2.97;;
55539;SDS011;41384;51.418;7.286;2023-05-07T06:56:09;4.38;;;2.83;;
55539;SDS011;41384;51.418;7.286;2023-05-07T06:58:34;3.42;;;2.80;;
55539;SDS011;41384;51.418;7.286;2023-05-07T07:01:00;3.60;;;2.88;;
55539;SDS011;41384;51.418;7.286;2023-05-07T07:03:25;5.72;;;2.63;;
55539;SDS011;41384;51.418;7.286;2023-05-07T07:05:54;5.35;;;3.03;;
55539;SDS011;41384;51.418;7.286;2023-05-07T07:08:20;5.05;;;2.72;;
55539;SDS011;41384;51.418;7.286;2023-05-07T07:10:46;4.07;;;2.60;;
55539;SDS011;41384;51.418;7.286;2023-05-07T07:13:12;3.72;;;3.00;;
55539;SDS011;41384;51.418;7.286;2023-05-07T07:15:37;3.75;;;2.78;;
55539;SDS011;41384;51.418;7.286;2023-05-07T07:18:03;6.60;;;2.80;;
55539;SDS011;41384;51.418;7.286;2023-05-07T07:20:29;4.35;;;2.88;;
55539;SDS011;41384;51.418;7.286;2023-05-07T07:22:54;3.35;;;2.55;;
55539;SDS011;41384;51.418;7.286;2023-05-07T07:25:20;3.47;;;2.50;;
55539;SDS011;41384;51.418;7.286;2023-05-07T07:27:45;3.08;;;2.63;;
55539;SDS011;41384;51.418;7.286;2023-05-07T07:30:10;4.13;;;2.40;;
55539;SDS011;41384;51.418;7.286;2023-05-07T07:32:36;4.60;;;2.70;;
55539;SDS011;41384;51.418;7.286;2023-05-07T07:35:01;3.45;;;2.42;;
55539;SDS011;41384;51.418;7.286;2023-05-07T07:37:27;3.20;;;2.40;;
55539;SDS011;41384;51.418;7.286;2023-05-07T07:39:52;3.50;;;2.60;;
55539;SDS011;41384;51.418;7.286;2023-05-07T07:42:17;3.42;;;2.22;;
55539;SDS011;41384;51.418;7.286;2023-05-07T07:44:43;3.70;;;2.40;;
55539;SDS011;41384;51.418;7.286;2023-05-07T07:47:08;2.47;;;1.92;;
55539;SDS011;41384;51.418;7.286;2023-05-07T07:49:34;5.25;;;2.30;;
55539;SDS011;41384;51.418;7.286;2023-05-07T07:52:00;3.03;;;2.08;;
55539;SDS011;41384;51.418;7.286;2023-05-07T07:54:25;3.22;;;2.15;;
55539;SDS011;41384;51.418;7.286;2023-05-07T07:56:51;3.55;;;2.10;;
55539;SDS011;41384;51.418;7.286;2023-05-07T07:59:16;3.65;;;2.15;;
55539;SDS011;41384;51.418;7.286;2023-05-07T08:01:43;3.17;;;2.15;;
55539;SDS011;41384;51.418;7.286;2023-05-07T08:04:09;3.10;;;2.33;;
55539;SDS011;41384;51.418;7.286;2023-05-07T08:06:35;5.47;;;2.60;;
55539;SDS011;41384;51.418;7.286;2023-05-07T08:12:22;5.20;;;2.75;;
55539;SDS011;41384;51.418;7.286;2023-05-07T08:14:47;4.43;;;2.92;;
55539;SDS011;41384;51.418;7.286;2023-05-07T08:17:13;4.72;;;2.30;;
55539;SDS011;41384;51.418;7.286;2023-05-07T08:19:40;4.20;;;2.17;;
55539;SDS011;41384;51.418;7.286;2023-05-07T08:22:06;3.88;;;2.53;;
55539;SDS011;41384;51.418;7.286;2023-05-07T08:24:31;2.78;;;1.95;;
55539;SDS011;41384;51.418;7.286;2023-05-07T08:26:56;2.80;;;2.10;;
55539;SDS011;41384;51.418;7.286;2023-05-07T08:29:22;2.90;;;2.03;;
55539;SDS011;41384;51.418;7.286;2023-05-07T08:31:47;3.17;;;2.00;;
55539;SDS011;41384;51.418;7.286;2023-05-07T08:34:12;2.80;;;2.08;;
55539;SDS011;41384;51.418;7.286;2023-05-07T08:36:38;5.45;;;2.35;;
55539;SDS011;41384;51.418;7.286;2023-05-07T08:39:03;6.28;;;2.78;;
55539;SDS011;41384;51.418;7.286;2023-05-07T08:41:29;4.72;;;3.20;;
55539;SDS011;41384;51.418;7.286;2023-05-07T08:43:54;4.85;;;2.88;;
55539;SDS011;41384;51.418;7.286;2023-05-07T08:46:22;5.10;;;2.63;;
55539;SDS011;41384;51.418;7.286;2023-05-07T08:48:50;3.28;;;2.33;;
55539;SDS011;41384;51.418;7.286;2023-05-07T08:51:17;3.55;;;2.40;;
55539;SDS011;41384;51.418;7.286;2023-05-07T08:53:45;4.00;;;2.55;;
55539;SDS011;41384;51.418;7.286;2023-05-07T08:56:13;4.85;;;2.80;;
55539;SDS011;41384;51.418;7.286;2023-05-07T08:58:40;4.13;;;2.70;;
55539;SDS011;41384;51.418;7.286;2023-05-07T09:01:10;3.90;;;2.38;;
55539;SDS011;41384;51.418;7.286;2023-05-07T09:06:04;6.03;;;2.30;;
55539;SDS011;41384;51.418;7.286;2023-05-07T09:08:31;3.90;;;2.30;;
55539;SDS011;41384;51.418;7.286;2023-05-07T09:10:57;4.13;;;2.40;;
55539;SDS011;41384;51.418;7.286;2023-05-07T09:13:23;5.13;;;2.60;;
55539;SDS011;41384;51.418;7.286;2023-05-07T09:15:48;3.83;;;2.42;;
55539;SDS011;41384;51.418;7.286;2023-05-07T09:18:14;3.13;;;2.20;;
55539;SDS011;41384;51.418;7.286;2023-05-07T09:20:40;3.72;;;2.13;;
55539;SDS011;41384;51.418;7.286;2023-05-07T09:23:06;2.90;;;1.95;;
55539;SDS011;41384;51.418;7.286;2023-05-07T09:25:33;4.50;;;2.80;;
55539;SDS011;41384;51.418;7.286;2023-05-07T09:27:59;6.20;;;2.30;;
55539;SDS011;41384;51.418;7.286;2023-05-07T09:30:29;4.32;;;2.10;;
55539;SDS011;41384;51.418;7.286;2023-05-07T09:32:56;3.28;;;1.80;;
55539;SDS011;41384;51.418;7.286;2023-05-07T09:35:22;2.85;;;2.00;;
55539;SDS011;41384;51.418;7.286;2023-05-07T09:37:51;4.15;;;2.15;;
55539;SDS011;41384;51.418;7.286;2023-05-07T09:40:21;4.05;;;2.00;;
55539;SDS011;41384;51.418;7.286;2023-05-07T09:42:48;3.00;;;1.92;;
55539;SDS011;41384;51.418;7.286;2023-05-07T09:45:14;2.80;;;2.00;;
55539;SDS011;41384;51.418;7.286;2023-05-07T09:47:39;4.57;;;2.00;;
55539;SDS011;41384;51.418;7.286;2023-05-07T09:50:10;5.07;;;2.03;;
55539;SDS011;41384;51.418;7.286;2023-05-07T09:52:37;3.20;;;1.80;;
55539;SDS011;41384;51.418;7.286;2023-05-07T09:55:05;2.25;;;1.67;;
55539;SDS011;41384;51.418;7.286;2023-05-07T09:57:31;2.53;;;2.03;;
55539;SDS011;41384;51.418;7.286;2023-05-07T09:59:57;5.10;;;1.95;;
55539;SDS011;41384;51.418;7.286;2023-05-07T10:02:23;2.17;;;1.42;;
55539;SDS011;41384;51.418;7.286;2023-05-07T10:04:53;2.95;;;1.90;;
55539;SDS011;41384;51.418;7.286;2023-05-07T10:07:19;3.45;;;2.67;;
55539;SDS011;41384;51.418;7.286;2023-05-07T10:09:46;4.32;;;3.05;;
55539;SDS011;41384;51.418;7.286;2023-05-07T10:12:11;4.20;;;2.78;;
55539;SDS011;41384;51.418;7.286;2023-05-07T10:14:37;4.10;;;3.28;;
55539;SDS011;41384;51.418;7.286;2023-05-07T10:17:03;4.88;;;3.05;;
55539;SDS011;41384;51.418;7.286;2023-05-07T10:19:29;6.28;;;3.15;;
55539;SDS011;41384;51.418;7.286;2023-05-07T10:21:55;4.25;;;3.50;;
55539;SDS011;41384;51.418;7.286;2023-05-07T10:24:31;4.80;;;3.60;;
55539;SDS011;41384;51.418;7.286;2023-05-07T10:26:59;5.38;;;3.58;;
55539;SDS011;41384;51.418;7.286;2023-05-07T10:32:08;4.60;;;3.53;;
55539;SDS011;41384;51.418;7.286;2023-05-07T10:34:53;4.80;;;3.53;;
55539;SDS011;41384;51.418;7.286;2023-05-07T10:37:20;5.65;;;4.05;;
55539;SDS011;41384;51.418;7.286;2023-05-07T10:39:47;5.55;;;3.90;;
55539;SDS011;41384;51.418;7.286;2023-05-07T10:42:13;5.18;;;3.80;;
55539;SDS011;41384;51.418;7.286;2023-05-07T10:44:39;5.70;;;3.42;;
55539;SDS011;41384;51.418;7.286;2023-05-07T10:49:31;7.50;;;4.18;;
55539;SDS011;41384;51.418;7.286;2023-05-07T10:54:42;6.30;;;3.95;;
55539;SDS011;41384;51.418;7.286;2023-05-07T11:00:02;5.72;;;3.70;;
55539;SDS011;41384;51.418;7.286;2023-05-07T11:05:30;5.30;;;3.15;;
55539;SDS011;41384;51.418;7.286;2023-05-07T11:07:57;4.53;;;3.15;;
55539;SDS011;41384;51.418;7.286;2023-05-07T11:10:57;5.05;;;3.40;;
55539;SDS011;41384;51.418;7.286;2023-05-07T11:13:17;5.25;;;3.75;;
55539;SDS011;41384;51.418;7.286;2023-05-07T11:15:47;5.10;;;3.42;;
55539;SDS011;41384;51.418;7.286;2023-05-07T11:18:16;4.28;;;3.03;;
55539;SDS011;41384;51.418;7.286;2023-05-07T11:20:57;8.85;;;3.78;;
55539;SDS011;41384;51.418;7.286;2023-05-07T11:26:03;4.43;;;3.20;;
55539;SDS011;41384;51.418;7.286;2023-05-07T11:28:29;4.20;;;2.70;;
55539;SDS011;41384;51.418;7.286;2023-05-07T11:30:56;3.15;;;2.45;;
55539;SDS011;41384;51.418;7.286;2023-05-07T11:33:22;5.60;;;2.75;;
55539;SDS011;41384;51.418;7.286;2023-05-07T11:35:50;5.68;;;3.03;;
55539;SDS011;41384;51.418;7.286;2023-05-07T11:38:17;3.75;;;3.35;;
55539;SDS011;41384;51.418;7.286;2023-05-07T11:40:50;5.50;;;3.13;;
55539;SDS011;41384;51.418;7.286;2023-05-07T11:43:20;5.93;;;3.60;;
55539;SDS011;41384;51.418;7.286;2023-05-07T11:45:45;4.88;;;2.97;;
55539;SDS011;41384;51.418;7.286;2023-05-07T11:48:12;4.32;;;3.25;;
55539;SDS011;41384;51.418;7.286;2023-05-07T11:50:50;5.70;;;3.70;;
55539;SDS011;41384;51.418;7.286;2023-05-07T11:53:17;6.68;;;3.60;;
55539;SDS011;41384;51.418;7.286;2023-05-07T11:55:43;5.65;;;3.53;;
55539;SDS011;41384;51.418;7.286;2023-05-07T11:58:10;4.72;;;3.65;;
55539;SDS011;41384;51.418;7.286;2023-05-07T12:00:37;6.32;;;4.32;;
55539;SDS011;41384;51.418;7.286;2023-05-07T12:03:03;6.75;;;4.15;;
55539;SDS011;41384;51.418;7.286;2023-05-07T12:05:29;7.03;;;3.92;;
55539;SDS011;41384;51.418;7.286;2023-05-07T12:07:58;6.35;;;4.60;;
55539;SDS011;41384;51.418;7.286;2023-05-07T12:10:23;5.63;;;4.47;;
55539;SDS011;41384;51.418;7.286;2023-05-07T12:12:50;6.22;;;5.00;;
55539;SDS011;41384;51.418;7.286;2023-05-07T12:15:15;6.85;;;4.60;;
55539;SDS011;41384;51.418;7.286;2023-05-07T12:17:47;6.90;;;4.82;;
55539;SDS011;41384;51.418;7.286;2023-05-07T12:20:13;6.68;;;5.25;;
55539;SDS011;41384;51.418;7.286;2023-05-07T12:22:39;6.57;;;4.82;;
55539;SDS011;41384;51.418;7.286;2023-05-07T12:25:06;6.15;;;4.70;;
55539;SDS011;41384;51.418;7.286;2023-05-07T12:27:31;7.85;;;5.20;;
55539;SDS011;41384;51.418;7.286;2023-05-07T12:29:57;6.13;;;4.55;;
55539;SDS011;41384;51.418;7.286;2023-05-07T12:32:24;7.30;;;4.75;;
55539;SDS011;41384;51.418;7.286;2023-05-07T12:34:49;7.55;;;4.68;;
55539;SDS011;41384;51.418;7.286;2023-05-07T12:37:15;6.93;;;4.90;;
55539;SDS011;41384;51.418;7.286;2023-05-07T12:39:46;4.93;;;4.40;;
55539;SDS011;41384;51.418;7.286;2023-05-07T12:42:15;7.13;;;4.75;;
55539;SDS011;41384;51.418;7.286;2023-05-07T12:44:41;7.50;;;5.00;;
55539;SDS011;41384;51.418;7.286;2023-05-07T12:47:10;6.90;;;4.60;;
55539;SDS011;41384;51.418;7.286;2023-05-07T12:49:35;6.85;;;4.65;;
55539;SDS011;41384;51.418;7.286;2023-05-07T12:52:03;7.22;;;5.13;;
55539;SDS011;41384;51.418;7.286;2023-05-07T12:54:34;7.75;;;4.63;;
55539;SDS011;41384;51.418;7.286;2023-05-07T12:57:05;6.25;;;4.70;;
55539;SDS011;41384;51.418;7.286;2023-05-07T12:59:33;6.93;;;4.28;;
55539;SDS011;41384;51.418;7.286;2023-05-07T13:02:02;7.07;;;4.05;;
55539;SDS011;41384;51.418;7.286;2023-05-07T13:04:28;5.75;;;4.35;;
55539;SDS011;41384;51.418;7.286;2023-05-07T13:06:53;7.68;;;4.63;;
55539;SDS011;41384;51.418;7.286;2023-05-07T13:09:19;6.03;;;4.13;;
55539;SDS011;41384;51.418;7.286;2023-05-07T13:11:44;6.65;;;4.30;;
55539;SDS011;41384;51.418;7.286;2023-05-07T13:14:09;5.07;;;4.15;;
55539;SDS011;41384;51.418;7.286;2023-05-07T13:16:35;5.72;;;4.30;;
55539;SDS011;41384;51.418;7.286;2023-05-07T13:19:00;5.30;;;3.53;;
55539;SDS011;41384;51.418;7.286;2023-05-07T13:21:25;5.25;;;4.22;;
55539;SDS011;41384;51.418;7.286;2023-05-07T13:23:51;5.10;;;4.20;;
55539;SDS011;41384;51.418;7.286;2023-05-07T13:26:17;7.80;;;4.90;;
55539;SDS011;41384;51.418;7.286;2023-05-07T13:28:42;6.57;;;4.75;;
55539;SDS011;41384;51.418;7.286;2023-05-07T13:31:08;7.25;;;4.75;;
55539;SDS011;41384;51.418;7.286;2023-05-07T13:33:33;6.97;;;4.43;;
55539;SDS011;41384;51.418;7.286;2023-05-07T13:35:59;5.35;;;4.18;;
55539;SDS011;41384;51.418;7.286;2023-05-07T13:38:25;5.30;;;3.90;;
55539;SDS011;41384;51.418;7.286;2023-05-07T13:40:51;7.60;;;5.35;;
55539;SDS011;41384;51.418;7.286;2023-05-07T13:43:16;5.25;;;4.40;;
55539;SDS011;41384;51.418;7.286;2023-05-07T13:45:42;6.10;;;4.97;;
55539;SDS011;41384;51.418;7.286;2023-05-07T13:48:07;5.90;;;4.80;;
55539;SDS011;41384;51.418;7.286;2023-05-07T13:50:33;6.43;;;4.63;;
55539;SDS011;41384;51.418;7.286;2023-05-07T13:52:58;7.40;;;4.50;;
55539;SDS011;41384;51.418;7.286;2023-05-07T13:55:23;6.68;;;4.97;;
55539;SDS011;41384;51.418;7.286;2023-05-07T13:57:56;7.70;;;4.40;;
55539;SDS011;41384;51.418;7.286;2023-05-07T14:00:23;7.53;;;4.70;;
55539;SDS011;41384;51.418;7.286;2023-05-07T14:02:49;6.10;;;4.93;;
55539;SDS011;41384;51.418;7.286;2023-05-07T14:05:15;7.32;;;4.88;;
55539;SDS011;41384;51.418;7.286;2023-05-07T14:07:40;6.95;;;5.32;;
55539;SDS011;41384;51.418;7.286;2023-05-07T14:10:06;6.85;;;5.50;;
55539;SDS011;41384;51.418;7.286;2023-05-07T14:12:32;7.60;;;5.03;;
55539;SDS011;41384;51.418;7.286;2023-05-07T14:14:58;9.27;;;5.82;;
55539;SDS011;41384;51.418;7.286;2023-05-07T14:17:23;10.55;;;5.90;;
55539;SDS011;41384;51.418;7.286;2023-05-07T14:19:51;7.80;;;5.70;;
55539;SDS011;41384;51.418;7.286;2023-05-07T14:22:18;9.15;;;5.40;;
55539;SDS011;41384;51.418;7.286;2023-05-07T14:24:45;10.85;;;6.00;;
55539;SDS011;41384;51.418;7.286;2023-05-07T14:27:10;6.20;;;5.55;;
55539;SDS011;41384;51.418;7.286;2023-05-07T14:29:36;8.15;;;5.55;;
55539;SDS011;41384;51.418;7.286;2023-05-07T14:32:01;10.52;;;5.93;;
55539;SDS011;41384;51.418;7.286;2023-05-07T14:34:28;7.20;;;5.63;;
55539;SDS011;41384;51.418;7.286;2023-05-07T14:36:54;8.27;;;5.85;;
55539;SDS011;41384;51.418;7.286;2023-05-07T14:39:20;7.43;;;5.57;;
55539;SDS011;41384;51.418;7.286;2023-05-07T14:41:45;7.55;;;5.40;;
55539;SDS011;41384;51.418;7.286;2023-05-07T14:44:12;6.05;;;5.32;;
55539;SDS011;41384;51.418;7.286;2023-05-07T14:46:37;9.07;;;6.75;;
55539;SDS011;41384;51.418;7.286;2023-05-07T14:49:02;8.43;;;6.25;;
55539;SDS011;41384;51.418;7.286;2023-05-07T14:51:28;10.45;;;7.25;;
55539;SDS011;41384;51.418;7.286;2023-05-07T14:53:53;9.50;;;6.78;;
55539;SDS011;41384;51.418;7.286;2023-05-07T14:56:19;8.73;;;6.95;;
55539;SDS011;41384;51.418;7.286;2023-05-07T14:58:46;9.20;;;5.38;;
55539;SDS011;41384;51.418;7.286;2023-05-07T15:01:13;7.78;;;5.22;;